createdAt,value
2023-02-19T00:01:45.317Z,101827.59
2023-02-19T00:04:21.450Z,101822.97
2023-02-19T00:06:48.045Z,101824.41
2023-02-19T00:09:16.751Z,101819.78
2023-02-19T00:11:43.917Z,101832.03
2023-02-19T00:14:14.882Z,101832.84
2023-02-19T00:16:41.473Z,101833.94
2023-02-19T00:19:11.689Z,101831.53
2023-02-19T00:21:38.352Z,101828.84
2023-02-19T00:24:07.218Z,101831.53
2023-02-19T00:26:34.454Z,101840.78
2023-02-19T00:29:02.028Z,101846.19
2023-02-19T00:31:33.797Z,101849.66
2023-02-19T00:34:05.279Z,101842.34
2023-02-19T00:36:34.048Z,101846.66
2023-02-19T00:39:00.569Z,101844.44
2023-02-19T00:41:27.413Z,101847.59
2023-02-19T00:44:02.244Z,101840.00
2023-02-19T00:46:37.578Z,101842.38
2023-02-19T00:49:05.624Z,101850.47
2023-02-19T00:51:35.326Z,101849.97
2023-02-19T00:54:02.321Z,101848.41
2023-02-19T00:56:29.048Z,101848.72
2023-02-19T00:58:56.434Z,101842.84
2023-02-19T01:01:23.008Z,101844.75
2023-02-19T01:03:49.519Z,101844.25
2023-02-19T01:06:18.314Z,101852.38
2023-02-19T01:08:45.258Z,101856.19
2023-02-19T01:11:12.810Z,101849.19
2023-02-19T01:13:40.466Z,101861.91
2023-02-19T01:16:15.914Z,101863.03
2023-02-19T01:18:43.159Z,101868.72
2023-02-19T01:21:14.103Z,101868.72
2023-02-19T01:23:40.785Z,101867.94
2023-02-19T01:26:09.067Z,101879.84
2023-02-19T01:28:35.931Z,101872.56
2023-02-19T01:31:04.594Z,101879.84
2023-02-19T01:33:31.751Z,101879.38
2023-02-19T01:35:58.580Z,101882.38
2023-02-19T01:38:25.073Z,101885.91
2023-02-19T01:41:03.642Z,101880.16
2023-02-19T01:43:32.885Z,101879.84
2023-02-19T01:45:59.836Z,101888.78
2023-02-19T01:48:38.673Z,101887.66
2023-02-19T01:51:07.144Z,101884.94
2023-02-19T01:53:39.533Z,101885.25
2023-02-19T01:56:08.574Z,101883.22
2023-02-19T01:58:36.669Z,101878.91
2023-02-19T02:01:06.016Z,101886.22
2023-02-19T02:03:34.251Z,101884.94
2023-02-19T02:06:20.093Z,101881.44
2023-02-19T02:09:05.933Z,101885.56
2023-02-19T02:11:32.747Z,101883.16
2023-02-19T02:14:00.349Z,101882.69
2023-02-19T02:16:32.927Z,101893.00
2023-02-19T02:19:08.012Z,101888.75
2023-02-19T02:21:52.705Z,101891.75
2023-02-19T02:24:38.214Z,101880.78
2023-02-19T02:27:04.537Z,101888.91
2023-02-19T02:29:56.196Z,101890.78
2023-02-19T02:32:32.306Z,101889.50
2023-02-19T02:35:08.686Z,101888.69
2023-02-19T02:37:38.722Z,101892.53
2023-02-19T02:40:07.982Z,101900.63
2023-02-19T02:42:35.676Z,101895.22
2023-02-19T02:45:38.141Z,101902.19
2023-02-19T02:48:08.941Z,101901.56
2023-02-19T02:50:45.119Z,101911.28
2023-02-19T02:53:37.625Z,101906.97
2023-02-19T02:56:04.969Z,101910.97
2023-02-19T02:58:33.445Z,101905.25
2023-02-19T03:01:23.915Z,101913.66
2023-02-19T03:03:56.901Z,101913.19
2023-02-19T03:06:28.300Z,101912.38
2023-02-19T03:09:02.225Z,101912.69
2023-02-19T03:11:49.188Z,101918.41
2023-02-19T03:14:42.786Z,101916.81
2023-02-19T03:17:34.744Z,101919.53
2023-02-19T03:20:05.204Z,101924.44
2023-02-19T03:22:34.552Z,101924.44
2023-02-19T03:25:25.880Z,101921.75
2023-02-19T03:27:54.297Z,101929.38
2023-02-19T03:30:25.369Z,101924.28
2023-02-19T03:32:57.306Z,101934.56
2023-02-19T03:35:28.030Z,101929.16
2023-02-19T03:38:18.495Z,101933.00
2023-02-19T03:40:58.877Z,101931.41
2023-02-19T03:43:37.742Z,101937.91
2023-02-19T03:46:15.359Z,101933.63
2023-02-19T03:48:51.273Z,101946.81
2023-02-19T03:51:22.676Z,101940.78
2023-02-19T03:54:17.168Z,101950.16
2023-02-19T03:56:50.231Z,101963.34
2023-02-19T03:59:41.249Z,101964.94
2023-02-19T04:02:13.970Z,101959.56
2023-02-19T04:05:14.094Z,101966.81
2023-02-19T04:07:45.237Z,101967.16
2023-02-19T04:10:14.101Z,101973.97
2023-02-19T04:12:44.925Z,101969.19
2023-02-19T04:15:17.751Z,101983.00
2023-02-19T04:17:51.145Z,101983.31
2023-02-19T04:20:20.150Z,101987.91
2023-02-19T04:22:47.369Z,101989.34
2023-02-19T04:25:14.124Z,101993.13
2023-02-19T04:27:40.937Z,101990.44
2023-02-19T04:30:09.470Z,101996.16
2023-02-19T04:32:35.929Z,101998.06
2023-02-19T04:35:02.325Z,101991.38
2023-02-19T04:37:28.836Z,102005.97
2023-02-19T04:39:55.209Z,102009.47
2023-02-19T04:42:21.726Z,102011.69
2023-02-19T04:44:48.476Z,102016.28
2023-02-19T04:47:17.833Z,102030.88
2023-02-19T04:49:45.623Z,102030.88
2023-02-19T04:52:12.680Z,102035.50
2023-02-19T04:54:39.190Z,102032.50
2023-02-19T04:57:06.093Z,102038.84
2023-02-19T04:59:33.353Z,102048.22
2023-02-19T05:01:59.928Z,102052.22
2023-02-19T05:04:26.718Z,102047.63
2023-02-19T05:06:53.354Z,102048.44
2023-02-19T05:09:19.801Z,102054.31
2023-02-19T05:11:46.177Z,102051.91
2023-02-19T05:14:13.013Z,102056.84
2023-02-19T05:16:39.915Z,102066.03
2023-02-19T05:19:09.975Z,102063.31
2023-02-19T05:21:36.796Z,102065.84
2023-02-19T05:26:45.745Z,102075.38
2023-02-19T05:29:16.593Z,102069.16
2023-02-19T05:31:43.062Z,102080.25
2023-02-19T05:34:10.291Z,102080.56
2023-02-19T05:36:41.209Z,102080.56
2023-02-19T05:39:09.688Z,102076.28
2023-02-19T05:44:21.165Z,102087.69
2023-02-19T05:46:52.914Z,102085.28
2023-02-19T05:49:26.864Z,102075.63
2023-02-19T05:54:46.609Z,102071.63
2023-02-19T05:57:13.768Z,102077.00
2023-02-19T05:59:40.715Z,102085.09
2023-02-19T06:02:13.291Z,102092.59
2023-02-19T06:04:40.820Z,102092.00
2023-02-19T06:07:07.851Z,102096.75
2023-02-19T06:09:34.932Z,102099.97
2023-02-19T06:12:31.905Z,102097.75
2023-02-19T06:14:59.372Z,102111.56
2023-02-19T06:17:31.180Z,102109.94
2023-02-19T06:22:45.058Z,102123.25
2023-02-19T06:25:13.564Z,102134.34
2023-02-19T06:27:41.963Z,102136.88
2023-02-19T06:30:09.461Z,102141.19
2023-02-19T06:32:37.075Z,102152.56
2023-02-19T06:35:11.851Z,102152.88
2023-02-19T06:37:39.718Z,102141.91
2023-02-19T06:40:29.037Z,102150.28
2023-02-19T06:43:01.527Z,102153.59
2023-02-19T06:45:35.600Z,102155.19
2023-02-19T06:48:02.127Z,102158.50
2023-02-19T06:50:31.441Z,102163.09
2023-02-19T06:52:59.735Z,102164.47
2023-02-19T06:55:56.234Z,102160.19
2023-02-19T06:58:26.476Z,102173.19
2023-02-19T07:00:56.738Z,102180.47
2023-02-19T07:03:38.798Z,102176.97
2023-02-19T07:06:06.206Z,102182.88
2023-02-19T07:08:36.346Z,102200.09
2023-02-19T07:11:06.792Z,102200.59
2023-02-19T07:13:33.626Z,102202.97
2023-02-19T07:16:03.267Z,102203.19
2023-02-19T07:18:35.555Z,102207.97
2023-02-19T07:21:18.608Z,102213.66
2023-02-19T07:23:46.644Z,102215.25
2023-02-19T07:26:35.401Z,102227.16
2023-02-19T07:29:02.892Z,102224.75
2023-02-19T07:31:30.733Z,102237.47
2023-02-19T07:34:03.120Z,102224.75
2023-02-19T07:36:34.761Z,102231.44
2023-02-19T07:39:01.967Z,102237.97
2023-02-19T07:44:15.279Z,102241.44
2023-02-19T07:46:45.836Z,102231.44
2023-02-19T07:49:13.523Z,102239.25
2023-02-19T07:51:45.327Z,102242.22
2023-02-19T07:59:34.983Z,102263.03
2023-02-19T08:02:20.182Z,102268.63
2023-02-19T08:04:50.150Z,102267.03
2023-02-19T08:07:18.046Z,102275.94
2023-02-19T08:09:44.864Z,102277.00
2023-02-19T08:12:33.800Z,102284.81
2023-02-19T08:15:07.332Z,102287.41
2023-02-19T08:17:34.974Z,102282.69
2023-02-19T08:20:05.180Z,102285.28
2023-02-19T08:22:35.248Z,102292.00
2023-02-19T08:27:53.315Z,102311.88
2023-02-19T08:30:24.920Z,102321.88
2023-02-19T08:32:51.721Z,102311.69
2023-02-19T08:35:25.700Z,102314.69
2023-02-19T08:37:59.070Z,102327.78
2023-02-19T08:40:31.112Z,102320.66
2023-02-19T08:43:06.028Z,102330.25
2023-02-19T08:45:38.874Z,102329.66
2023-02-19T08:48:08.242Z,102318.44
2023-02-19T08:50:40.664Z,102333.31
2023-02-19T08:53:17.152Z,102337.31
2023-02-19T08:55:44.667Z,102333.31
2023-02-19T08:58:16.819Z,102322.63
2023-02-19T09:00:45.438Z,102329.13
2023-02-19T09:03:17.529Z,102337.31
2023-02-19T09:05:49.768Z,102339.47
2023-02-19T09:08:23.710Z,102335.66
2023-02-19T09:11:16.515Z,102333.41
2023-02-19T09:13:43.880Z,102337.28
2023-02-19T09:16:11.512Z,102346.25
2023-02-19T09:18:43.891Z,102354.00
2023-02-19T09:21:12.726Z,102358.19
2023-02-19T09:23:45.159Z,102351.47
2023-02-19T09:26:38.751Z,102359.28
2023-02-19T09:29:09.025Z,102361.19
2023-02-19T09:31:36.002Z,102373.59
2023-02-19T09:34:02.865Z,102386.81
2023-02-19T09:36:30.060Z,102393.25
2023-02-19T09:38:56.911Z,102392.69
2023-02-19T09:41:35.702Z,102402.53
2023-02-19T09:44:11.101Z,102406.81
2023-02-19T09:46:48.698Z,102420.16
2023-02-19T09:49:24.698Z,102423.59
2023-02-19T09:52:12.005Z,102425.88
2023-02-19T09:54:41.926Z,102428.94
2023-02-19T09:57:19.843Z,102441.63
2023-02-19T09:59:59.152Z,102445.94
2023-02-19T10:02:38.479Z,102444.69
2023-02-19T10:05:18.884Z,102441.09
2023-02-19T10:07:57.923Z,102454.00
2023-02-19T10:10:31.988Z,102460.88
2023-02-19T10:16:04.908Z,102472.53
2023-02-19T10:19:14.687Z,102478.53
2023-02-19T10:21:43.755Z,102496.66
2023-02-19T10:24:24.037Z,102495.66
2023-02-19T10:26:51.589Z,102495.03
2023-02-19T10:32:33.947Z,102503.66
2023-02-19T10:35:16.896Z,102512.38
2023-02-19T10:37:49.939Z,102517.38
2023-02-19T10:40:27.645Z,102518.38
2023-02-19T10:43:03.757Z,102523.69
2023-02-19T10:45:41.548Z,102520.88
2023-02-19T10:48:25.601Z,102517.44
2023-02-19T10:50:58.923Z,102528.59
2023-02-19T10:53:42.172Z,102529.19
2023-02-19T10:56:14.936Z,102527.69
2023-02-19T11:01:33.095Z,102515.88
2023-02-19T11:04:17.907Z,102502.06
2023-02-19T11:06:46.154Z,102500.03
2023-02-19T11:09:43.903Z,102509.13
2023-02-19T11:12:19.008Z,102513.75
2023-02-19T11:17:33.291Z,102521.75
2023-02-19T11:20:10.782Z,102528.97
2023-02-19T11:22:43.690Z,102527.53
2023-02-19T11:25:10.255Z,102526.44
2023-02-19T11:28:00.257Z,102536.56
2023-02-19T11:30:36.476Z,102540.06
2023-02-19T11:33:27.664Z,102525.13
2023-02-19T11:36:31.031Z,102527.25
2023-02-19T11:39:09.958Z,102533.41
2023-02-19T11:41:55.484Z,102542.41
2023-02-19T11:48:09.682Z,102547.13
2023-02-19T11:50:52.805Z,102542.53
2023-02-19T11:53:51.700Z,102537.41
2023-02-19T11:56:34.760Z,102530.41
2023-02-19T11:59:11.657Z,102538.13
2023-02-19T12:02:03.004Z,102529.53
2023-02-19T12:04:46.273Z,102534.44
2023-02-19T12:07:47.219Z,102538.44
2023-02-19T12:13:53.545Z,102545.34
2023-02-19T12:16:47.996Z,102552.88
2023-02-19T12:19:57.038Z,102555.63
2023-02-19T12:22:44.740Z,102547.31
2023-02-19T12:25:37.373Z,102561.16
2023-02-19T12:28:39.568Z,102549.31
2023-02-19T12:31:21.184Z,102550.00
2023-02-19T12:34:34.263Z,102551.03
2023-02-19T12:37:25.356Z,102563.81
2023-02-19T12:40:21.121Z,102568.13
2023-02-19T12:48:45.845Z,102567.00
2023-02-19T12:54:23.843Z,102587.19
2023-02-19T12:56:59.582Z,102583.31
2023-02-19T12:59:50.789Z,102596.72
2023-02-19T13:02:45.990Z,102604.28
2023-02-19T13:05:50.037Z,102602.41
2023-02-19T13:08:22.475Z,102599.00
2023-02-19T13:11:04.013Z,102603.09
2023-02-19T13:13:54.065Z,102606.44
2023-02-19T13:16:21.973Z,102617.16
2023-02-19T13:18:58.947Z,102624.09
2023-02-19T13:21:52.139Z,102630.28
2023-02-19T13:24:27.792Z,102631.91
2023-02-19T13:27:13.127Z,102645.91
2023-02-19T13:29:43.405Z,102651.91
2023-02-19T13:32:28.385Z,102645.66
2023-02-19T13:37:45.500Z,102643.31
2023-02-19T13:43:40.606Z,102640.91
2023-02-19T13:46:12.964Z,102647.41
2023-02-19T13:48:43.854Z,102659.31
2023-02-19T13:51:39.635Z,102660.69
2023-02-19T13:54:23.130Z,102662.88
2023-02-19T13:56:59.006Z,102661.06
2023-02-19T14:02:23.875Z,102664.13
2023-02-19T14:04:58.980Z,102663.84
2023-02-19T14:07:35.177Z,102661.66
2023-02-19T14:10:09.613Z,102673.75
2023-02-19T14:12:38.368Z,102667.75
2023-02-19T14:15:29.388Z,102666.69
2023-02-19T14:17:56.119Z,102670.97
2023-02-19T14:20:44.453Z,102659.06
2023-02-19T14:28:53.701Z,102662.13
2023-02-19T14:31:39.019Z,102655.09
2023-02-19T14:34:13.789Z,102651.53
2023-02-19T14:37:00.748Z,102644.72
2023-02-19T14:39:36.521Z,102640.84
2023-02-19T14:42:14.077Z,102636.44
2023-02-19T14:44:50.685Z,102633.16
2023-02-19T14:47:22.803Z,102620.75
2023-02-19T14:49:53.973Z,102623.75
2023-02-19T14:52:49.924Z,102622.53
2023-02-19T14:55:34.342Z,102627.13
2023-02-19T14:58:20.717Z,102633.41
2023-02-19T15:00:48.160Z,102609.94
2023-02-19T15:09:08.792Z,102600.63
2023-02-19T15:11:44.895Z,102603.53
2023-02-19T15:14:24.076Z,102610.53
2023-02-19T15:17:16.189Z,102617.03
2023-02-19T15:22:28.613Z,102647.94
2023-02-19T15:27:37.414Z,102657.81
2023-02-19T15:33:02.686Z,102669.66
2023-02-19T15:35:31.109Z,102675.28
2023-02-19T15:37:58.240Z,102669.38
2023-02-19T15:43:28.661Z,102685.88
2023-02-19T15:46:07.878Z,102677.56
2023-02-19T15:48:49.644Z,102677.41
2023-02-19T15:51:43.788Z,102677.50
2023-02-19T15:54:22.606Z,102666.53
2023-02-19T15:57:09.775Z,102657.69
2023-02-19T15:59:50.057Z,102657.22
2023-02-19T16:02:21.856Z,102680.00
2023-02-19T16:04:48.868Z,102684.56
2023-02-19T16:07:39.853Z,102683.84
2023-02-19T16:10:12.552Z,102691.22
2023-02-19T16:12:40.134Z,102705.25
2023-02-19T16:15:35.941Z,102707.50
2023-02-19T16:18:06.053Z,102712.16
2023-02-19T16:20:36.023Z,102717.03
2023-02-19T16:23:14.273Z,102716.00
2023-02-19T16:25:44.528Z,102718.75
2023-02-19T16:28:15.382Z,102723.13
2023-02-19T16:30:42.555Z,102720.75
2023-02-19T16:33:48.690Z,102722.13
2023-02-19T16:36:38.224Z,102721.59
2023-02-19T16:39:08.138Z,102725.16
2023-02-19T16:42:15.441Z,102721.44
2023-02-19T16:44:49.781Z,102724.19
2023-02-19T16:55:57.803Z,102742.00
2023-02-19T17:03:53.447Z,102723.19
2023-02-19T17:06:27.429Z,102719.16
2023-02-19T17:08:54.245Z,102715.22
2023-02-19T17:11:25.870Z,102717.38
2023-02-19T17:14:07.316Z,102717.66
2023-02-19T17:16:42.188Z,102719.28
2023-02-19T17:19:20.884Z,102726.63
2023-02-19T17:21:51.712Z,102728.81
2023-02-19T17:24:18.946Z,102726.38
2023-02-19T17:26:45.808Z,102736.94
2023-02-19T17:29:14.954Z,102735.88
2023-02-19T17:31:41.821Z,102744.00
2023-02-19T17:34:08.563Z,102750.47
2023-02-19T17:36:35.269Z,102751.81
2023-02-19T17:39:04.489Z,102752.13
2023-02-19T17:41:30.863Z,102759.66
2023-02-19T17:43:57.348Z,102764.00
2023-02-19T17:46:26.117Z,102765.34
2023-02-19T17:48:53.696Z,102772.59
2023-02-19T17:51:20.764Z,102776.16
2023-02-19T17:53:47.314Z,102784.22
2023-02-19T17:56:19.382Z,102785.53
2023-02-19T17:58:46.853Z,102775.03
2023-02-19T18:01:13.998Z,102772.88
2023-02-19T18:03:40.619Z,102781.50
2023-02-19T18:06:07.445Z,102774.47
2023-02-19T18:08:34.262Z,102777.16
2023-02-19T18:11:01.012Z,102763.97
2023-02-19T18:13:27.428Z,102761.81
2023-02-19T18:15:53.856Z,102753.22
2023-02-19T18:18:21.002Z,102756.19
2023-02-19T18:20:47.549Z,102755.16
2023-02-19T18:23:13.993Z,102747.66
2023-02-19T18:25:40.420Z,102757.09
2023-02-19T18:28:06.878Z,102750.34
2023-02-19T18:30:33.485Z,102748.22
2023-02-19T18:33:00.010Z,102745.56
2023-02-19T18:35:26.575Z,102745.31
2023-02-19T18:37:54.337Z,102756.91
2023-02-19T18:40:22.593Z,102758.81
2023-02-19T18:42:49.167Z,102760.97
2023-02-19T18:45:15.704Z,102758.34
2023-02-19T18:47:42.195Z,102755.41
2023-02-19T18:50:09.891Z,102753.28
2023-02-19T18:52:36.441Z,102758.94
2023-02-19T18:55:03.344Z,102756.56
2023-02-19T18:57:30.107Z,102751.50
2023-02-19T18:59:56.587Z,102759.59
2023-02-19T19:02:23.295Z,102760.66
2023-02-19T19:04:52.161Z,102746.94
2023-02-19T19:07:19.633Z,102746.41
2023-02-19T19:09:46.442Z,102755.53
2023-02-19T19:12:13.368Z,102755.81
2023-02-19T19:14:39.885Z,102763.88
2023-02-19T19:17:06.433Z,102764.97
2023-02-19T19:19:33.050Z,102763.88
2023-02-19T19:21:59.862Z,102762.28
2023-02-19T19:24:26.386Z,102774.13
2023-02-19T19:26:53.279Z,102774.66
2023-02-19T19:29:22.109Z,102774.38
2023-02-19T19:31:49.300Z,102778.16
2023-02-19T19:34:16.480Z,102783.28
2023-02-19T19:36:43.396Z,102770.91
2023-02-19T19:39:10.047Z,102774.41
2023-02-19T19:41:36.685Z,102776.00
2023-02-19T19:44:05.389Z,102763.94
2023-02-19T19:46:32.412Z,102783.28
2023-02-19T19:48:58.979Z,102774.69
2023-02-19T19:51:32.142Z,102777.38
2023-02-19T19:53:58.679Z,102783.53
2023-02-19T19:56:25.092Z,102765.56
2023-02-19T19:58:51.529Z,102764.72
2023-02-19T20:01:21.208Z,102761.50
2023-02-19T20:03:48.089Z,102761.75
2023-02-19T20:06:14.514Z,102760.41
2023-02-19T20:08:41.025Z,102752.34
2023-02-19T20:11:07.420Z,102766.03
2023-02-19T20:13:34.483Z,102767.91
2023-02-19T20:16:01.030Z,102765.50
2023-02-19T20:18:27.584Z,102765.22
2023-02-19T20:20:54.034Z,102752.34
2023-02-19T20:23:20.453Z,102757.16
2023-02-19T20:25:46.934Z,102750.97
2023-02-19T20:28:13.355Z,102753.13
2023-02-19T20:30:39.841Z,102747.75
2023-02-19T20:33:06.366Z,102757.16
2023-02-19T20:35:33.700Z,102754.75
2023-02-19T20:38:00.209Z,102753.38
2023-02-19T20:40:30.347Z,102766.53
2023-02-19T20:42:57.376Z,102767.63
2023-02-19T20:45:23.826Z,102753.34
2023-02-19T20:47:50.220Z,102758.44
2023-02-19T20:50:18.533Z,102755.22
2023-02-19T20:52:45.978Z,102758.16
2023-02-19T20:55:12.609Z,102754.94
2023-02-19T20:57:39.116Z,102758.97
2023-02-19T21:00:06.453Z,102749.81
2023-02-19T21:02:33.314Z,102741.75
2023-02-19T21:05:00.712Z,102745.75
2023-02-19T21:07:27.332Z,102746.78
2023-02-19T21:09:53.877Z,102727.19
2023-02-19T21:12:21.674Z,102719.94
2023-02-19T21:14:48.619Z,102700.09
2023-02-19T21:17:15.145Z,102704.09
2023-02-19T21:19:41.721Z,102709.72
2023-02-19T21:22:08.269Z,102715.38
2023-02-19T21:24:34.832Z,102713.75
2023-02-19T21:27:01.358Z,102712.69
2023-02-19T21:29:27.816Z,102711.09
2023-02-19T21:31:56.558Z,102708.13
2023-02-19T21:34:26.225Z,102715.66
2023-02-19T21:36:54.182Z,102720.47
2023-02-19T21:39:22.547Z,102723.72
2023-02-19T21:41:49.791Z,102730.13
2023-02-19T21:44:16.836Z,102727.72
2023-02-19T21:46:43.297Z,102733.06
2023-02-19T21:49:10.480Z,102730.69
2023-02-19T21:51:41.752Z,102731.50
2023-02-19T21:54:13.119Z,102723.16
2023-02-19T21:56:39.493Z,102734.41
2023-02-19T21:59:05.953Z,102725.56
2023-02-19T22:01:35.067Z,102736.56
2023-02-19T22:04:01.928Z,102726.41
2023-02-19T22:06:30.613Z,102718.38
2023-02-19T22:08:57.899Z,102715.13
2023-02-19T22:11:24.465Z,102713.78
2023-02-19T22:13:51.221Z,102715.13
2023-02-19T22:16:18.389Z,102720.47
2023-02-19T22:18:49.225Z,102729.59
2023-02-19T22:21:16.452Z,102718.34
2023-02-19T22:23:44.962Z,102718.88
2023-02-19T22:26:21.560Z,102714.03
2023-02-19T22:28:48.266Z,102711.34
2023-02-19T22:31:16.552Z,102703.59
2023-02-19T22:33:43.397Z,102699.03
2023-02-19T22:36:24.697Z,102702.28
2023-02-19T22:38:51.944Z,102681.91
2023-02-19T22:41:19.377Z,102696.91
2023-02-19T22:43:46.436Z,102695.56
2023-02-19T22:46:22.908Z,102688.06
2023-02-19T22:48:50.544Z,102692.63
2023-02-19T22:51:20.161Z,102692.91
2023-02-19T22:53:54.961Z,102684.84
2023-02-19T22:56:23.561Z,102678.44
2023-02-19T22:58:50.572Z,102682.97
2023-02-19T23:01:17.958Z,102678.19
2023-02-19T23:03:52.279Z,102669.59
2023-02-19T23:06:22.876Z,102672.00
2023-02-19T23:08:49.426Z,102661.81
2023-02-19T23:11:23.014Z,102666.13
2023-02-19T23:13:49.621Z,102658.88
2023-02-19T23:16:16.663Z,102654.06
2023-02-19T23:18:43.086Z,102653.78
2023-02-19T23:21:09.719Z,102661.31
2023-02-19T23:23:36.137Z,102667.47
2023-02-19T23:26:03.808Z,102654.63
2023-02-19T23:28:30.435Z,102653.53
2023-02-19T23:30:57.333Z,102663.47
2023-02-19T23:33:23.995Z,102649.81
2023-02-19T23:35:50.555Z,102669.38
2023-02-19T23:38:17.121Z,102664.56
2023-02-19T23:40:43.826Z,102680.94
2023-02-19T23:43:10.253Z,102676.38
2023-02-19T23:45:36.828Z,102660.56
2023-02-19T23:48:03.443Z,102667.25
2023-02-19T23:50:30.103Z,102664.06
2023-02-19T23:52:58.897Z,102654.94
2023-02-19T23:55:26.404Z,102642.06
2023-02-19T23:57:53.516Z,102633.19
